sensor_id;sensor_type;location;lat;lon;timestamp;P1;durP1;ratioP1;P2;durP2;ratioP2
59442;SDS011;45247;47.466;19.004;2024-02-28T00:01:50;25.63;;;12.95;;
59442;SDS011;45247;47.466;19.004;2024-02-28T00:04:19;20.48;;;12.45;;
59442;SDS011;45247;47.466;19.004;2024-02-28T00:06:47;28.80;;;13.65;;
59442;SDS011;45247;47.466;19.004;2024-02-28T00:09:17;22.08;;;12.70;;
59442;SDS011;45247;47.466;19.004;2024-02-28T00:11:46;26.95;;;13.25;;
59442;SDS011;45247;47.466;19.004;2024-02-28T00:14:14;20.23;;;13.50;;
59442;SDS011;45247;47.466;19.004;2024-02-28T00:16:43;20.58;;;13.07;;
59442;SDS011;45247;47.466;19.004;2024-02-28T00:19:12;26.55;;;14.23;;
59442;SDS011;45247;47.466;19.004;2024-02-28T00:21:40;24.73;;;14.30;;
59442;SDS011;45247;47.466;19.004;2024-02-28T00:24:09;26.42;;;14.00;;
59442;SDS011;45247;47.466;19.004;2024-02-28T00:26:39;21.33;;;12.55;;
59442;SDS011;45247;47.466;19.004;2024-02-28T00:29:08;23.85;;;13.20;;
59442;SDS011;45247;47.466;19.004;2024-02-28T00:31:37;20.35;;;12.88;;
59442;SDS011;45247;47.466;19.004;2024-02-28T00:34:05;28.70;;;14.18;;
59442;SDS011;45247;47.466;19.004;2024-02-28T00:36:35;26.15;;;14.07;;
59442;SDS011;45247;47.466;19.004;2024-02-28T00:39:20;23.42;;;13.73;;
59442;SDS011;45247;47.466;19.004;2024-02-28T00:41:50;28.77;;;14.23;;
59442;SDS011;45247;47.466;19.004;2024-02-28T00:44:18;24.13;;;14.13;;
59442;SDS011;45247;47.466;19.004;2024-02-28T00:46:46;28.90;;;15.07;;
59442;SDS011;45247;47.466;19.004;2024-02-28T00:49:14;25.85;;;13.45;;
59442;SDS011;45247;47.466;19.004;2024-02-28T00:51:42;25.80;;;14.60;;
59442;SDS011;45247;47.466;19.004;2024-02-28T00:54:10;24.67;;;14.20;;
59442;SDS011;45247;47.466;19.004;2024-02-28T00:56:38;28.05;;;15.20;;
59442;SDS011;45247;47.466;19.004;2024-02-28T00:59:08;27.15;;;16.27;;
59442;SDS011;45247;47.466;19.004;2024-02-28T01:01:37;28.95;;;14.63;;
59442;SDS011;45247;47.466;19.004;2024-02-28T01:04:05;19.00;;;12.48;;
59442;SDS011;45247;47.466;19.004;2024-02-28T01:06:34;23.27;;;13.48;;
59442;SDS011;45247;47.466;19.004;2024-02-28T01:09:02;21.70;;;12.98;;
59442;SDS011;45247;47.466;19.004;2024-02-28T01:11:31;22.05;;;13.40;;
59442;SDS011;45247;47.466;19.004;2024-02-28T01:13:59;21.88;;;14.93;;
59442;SDS011;45247;47.466;19.004;2024-02-28T01:16:29;25.05;;;14.10;;
59442;SDS011;45247;47.466;19.004;2024-02-28T01:18:57;23.73;;;14.98;;
59442;SDS011;45247;47.466;19.004;2024-02-28T01:21:25;24.42;;;15.85;;
59442;SDS011;45247;47.466;19.004;2024-02-28T01:23:52;26.00;;;16.15;;
59442;SDS011;45247;47.466;19.004;2024-02-28T01:26:20;26.88;;;15.82;;
59442;SDS011;45247;47.466;19.004;2024-02-28T01:28:49;29.20;;;16.67;;
59442;SDS011;45247;47.466;19.004;2024-02-28T01:31:17;35.47;;;17.00;;
59442;SDS011;45247;47.466;19.004;2024-02-28T01:33:48;28.38;;;16.33;;
59442;SDS011;45247;47.466;19.004;2024-02-28T01:36:16;29.38;;;16.38;;
59442;SDS011;45247;47.466;19.004;2024-02-28T01:38:44;31.15;;;18.50;;
59442;SDS011;45247;47.466;19.004;2024-02-28T01:41:12;24.88;;;16.23;;
59442;SDS011;45247;47.466;19.004;2024-02-28T01:43:40;33.83;;;17.05;;
59442;SDS011;45247;47.466;19.004;2024-02-28T01:46:22;32.67;;;17.55;;
59442;SDS011;45247;47.466;19.004;2024-02-28T01:48:53;32.28;;;17.73;;
59442;SDS011;45247;47.466;19.004;2024-02-28T01:51:22;30.38;;;17.05;;
59442;SDS011;45247;47.466;19.004;2024-02-28T01:53:52;29.63;;;18.02;;
59442;SDS011;45247;47.466;19.004;2024-02-28T01:56:22;29.73;;;17.02;;
59442;SDS011;45247;47.466;19.004;2024-02-28T01:58:52;28.67;;;17.33;;
59442;SDS011;45247;47.466;19.004;2024-02-28T02:01:21;26.85;;;15.43;;
59442;SDS011;45247;47.466;19.004;2024-02-28T02:03:50;30.58;;;16.92;;
59442;SDS011;45247;47.466;19.004;2024-02-28T02:06:19;29.42;;;17.02;;
59442;SDS011;45247;47.466;19.004;2024-02-28T02:08:48;31.10;;;17.92;;
59442;SDS011;45247;47.466;19.004;2024-02-28T02:11:17;28.98;;;16.83;;
59442;SDS011;45247;47.466;19.004;2024-02-28T02:13:49;33.83;;;16.52;;
59442;SDS011;45247;47.466;19.004;2024-02-28T02:16:18;31.55;;;18.52;;
59442;SDS011;45247;47.466;19.004;2024-02-28T02:18:48;33.28;;;18.42;;
59442;SDS011;45247;47.466;19.004;2024-02-28T02:21:17;33.78;;;18.30;;
59442;SDS011;45247;47.466;19.004;2024-02-28T02:23:48;29.00;;;16.45;;
59442;SDS011;45247;47.466;19.004;2024-02-28T02:26:16;31.70;;;17.20;;
59442;SDS011;45247;47.466;19.004;2024-02-28T02:28:44;30.30;;;17.30;;
59442;SDS011;45247;47.466;19.004;2024-02-28T02:31:13;29.05;;;17.88;;
59442;SDS011;45247;47.466;19.004;2024-02-28T02:33:41;29.40;;;17.40;;
59442;SDS011;45247;47.466;19.004;2024-02-28T02:36:09;29.90;;;17.85;;
59442;SDS011;45247;47.466;19.004;2024-02-28T02:38:37;28.52;;;17.58;;
59442;SDS011;45247;47.466;19.004;2024-02-28T02:41:07;30.67;;;16.70;;
59442;SDS011;45247;47.466;19.004;2024-02-28T02:43:35;31.15;;;16.65;;
59442;SDS011;45247;47.466;19.004;2024-02-28T02:46:03;27.00;;;15.63;;
59442;SDS011;45247;47.466;19.004;2024-02-28T02:48:31;23.23;;;14.90;;
59442;SDS011;45247;47.466;19.004;2024-02-28T02:51:00;27.75;;;15.63;;
59442;SDS011;45247;47.466;19.004;2024-02-28T02:53:28;27.67;;;15.15;;
59442;SDS011;45247;47.466;19.004;2024-02-28T02:55:56;27.27;;;15.65;;
59442;SDS011;45247;47.466;19.004;2024-02-28T02:58:25;28.20;;;15.75;;
59442;SDS011;45247;47.466;19.004;2024-02-28T03:00:53;30.02;;;15.75;;
59442;SDS011;45247;47.466;19.004;2024-02-28T03:03:21;24.48;;;14.30;;
59442;SDS011;45247;47.466;19.004;2024-02-28T03:05:49;23.50;;;15.10;;
59442;SDS011;45247;47.466;19.004;2024-02-28T03:08:17;37.92;;;16.63;;
59442;SDS011;45247;47.466;19.004;2024-02-28T03:10:46;26.67;;;16.15;;
59442;SDS011;45247;47.466;19.004;2024-02-28T03:13:14;34.88;;;17.33;;
59442;SDS011;45247;47.466;19.004;2024-02-28T03:15:43;25.63;;;15.52;;
59442;SDS011;45247;47.466;19.004;2024-02-28T03:18:11;27.60;;;16.27;;
59442;SDS011;45247;47.466;19.004;2024-02-28T03:20:40;27.98;;;16.95;;
59442;SDS011;45247;47.466;19.004;2024-02-28T03:23:08;25.33;;;15.50;;
59442;SDS011;45247;47.466;19.004;2024-02-28T03:25:36;27.85;;;16.33;;
59442;SDS011;45247;47.466;19.004;2024-02-28T03:28:04;29.27;;;17.02;;
59442;SDS011;45247;47.466;19.004;2024-02-28T03:30:32;31.13;;;16.75;;
59442;SDS011;45247;47.466;19.004;2024-02-28T03:33:02;36.90;;;17.13;;
59442;SDS011;45247;47.466;19.004;2024-02-28T03:35:30;28.50;;;16.52;;
59442;SDS011;45247;47.466;19.004;2024-02-28T03:37:58;28.25;;;17.13;;
59442;SDS011;45247;47.466;19.004;2024-02-28T03:40:26;30.52;;;15.88;;
59442;SDS011;45247;47.466;19.004;2024-02-28T03:42:54;36.00;;;18.60;;
59442;SDS011;45247;47.466;19.004;2024-02-28T03:45:22;29.00;;;17.25;;
59442;SDS011;45247;47.466;19.004;2024-02-28T03:47:50;29.02;;;16.90;;
59442;SDS011;45247;47.466;19.004;2024-02-28T03:50:20;26.50;;;17.08;;
59442;SDS011;45247;47.466;19.004;2024-02-28T03:52:48;27.85;;;16.80;;
59442;SDS011;45247;47.466;19.004;2024-02-28T03:55:16;31.05;;;16.45;;
59442;SDS011;45247;47.466;19.004;2024-02-28T03:57:46;26.58;;;17.08;;
59442;SDS011;45247;47.466;19.004;2024-02-28T04:00:15;26.15;;;16.83;;
59442;SDS011;45247;47.466;19.004;2024-02-28T04:02:43;31.23;;;18.05;;
59442;SDS011;45247;47.466;19.004;2024-02-28T04:05:12;27.92;;;16.73;;
59442;SDS011;45247;47.466;19.004;2024-02-28T04:07:41;31.40;;;16.92;;
59442;SDS011;45247;47.466;19.004;2024-02-28T04:10:09;32.90;;;16.38;;
59442;SDS011;45247;47.466;19.004;2024-02-28T04:12:38;26.73;;;16.83;;
59442;SDS011;45247;47.466;19.004;2024-02-28T04:15:06;28.83;;;16.63;;
59442;SDS011;45247;47.466;19.004;2024-02-28T04:17:38;24.30;;;15.05;;
59442;SDS011;45247;47.466;19.004;2024-02-28T04:20:08;27.92;;;16.58;;
59442;SDS011;45247;47.466;19.004;2024-02-28T04:22:37;30.55;;;16.63;;
59442;SDS011;45247;47.466;19.004;2024-02-28T04:25:07;33.30;;;17.35;;
59442;SDS011;45247;47.466;19.004;2024-02-28T04:27:36;31.25;;;15.60;;
59442;SDS011;45247;47.466;19.004;2024-02-28T04:30:04;25.52;;;15.32;;
59442;SDS011;45247;47.466;19.004;2024-02-28T04:32:33;30.33;;;17.02;;
59442;SDS011;45247;47.466;19.004;2024-02-28T04:35:02;29.63;;;15.90;;
59442;SDS011;45247;47.466;19.004;2024-02-28T04:37:30;30.42;;;16.35;;
59442;SDS011;45247;47.466;19.004;2024-02-28T04:39:58;30.38;;;15.98;;
59442;SDS011;45247;47.466;19.004;2024-02-28T04:42:28;27.70;;;16.98;;
59442;SDS011;45247;47.466;19.004;2024-02-28T04:44:56;26.48;;;15.88;;
59442;SDS011;45247;47.466;19.004;2024-02-28T04:47:25;25.80;;;16.60;;
59442;SDS011;45247;47.466;19.004;2024-02-28T04:50:05;35.83;;;17.13;;
59442;SDS011;45247;47.466;19.004;2024-02-28T04:52:33;24.38;;;15.55;;
59442;SDS011;45247;47.466;19.004;2024-02-28T04:55:02;28.70;;;16.33;;
59442;SDS011;45247;47.466;19.004;2024-02-28T04:57:31;25.50;;;15.27;;
59442;SDS011;45247;47.466;19.004;2024-02-28T05:00:00;27.63;;;15.10;;
59442;SDS011;45247;47.466;19.004;2024-02-28T05:02:30;35.15;;;15.57;;
59442;SDS011;45247;47.466;19.004;2024-02-28T05:04:58;24.48;;;14.98;;
59442;SDS011;45247;47.466;19.004;2024-02-28T05:07:26;27.05;;;16.63;;
59442;SDS011;45247;47.466;19.004;2024-02-28T05:09:54;26.02;;;15.45;;
59442;SDS011;45247;47.466;19.004;2024-02-28T05:12:22;35.70;;;16.13;;
59442;SDS011;45247;47.466;19.004;2024-02-28T05:14:51;26.52;;;16.00;;
59442;SDS011;45247;47.466;19.004;2024-02-28T05:17:21;26.77;;;14.75;;
59442;SDS011;45247;47.466;19.004;2024-02-28T05:19:49;26.08;;;15.27;;
59442;SDS011;45247;47.466;19.004;2024-02-28T05:22:17;27.88;;;16.50;;
59442;SDS011;45247;47.466;19.004;2024-02-28T05:24:45;26.20;;;15.95;;
59442;SDS011;45247;47.466;19.004;2024-02-28T05:27:14;28.20;;;16.05;;
59442;SDS011;45247;47.466;19.004;2024-02-28T05:29:42;30.20;;;16.33;;
59442;SDS011;45247;47.466;19.004;2024-02-28T05:32:11;30.77;;;15.88;;
59442;SDS011;45247;47.466;19.004;2024-02-28T05:34:39;24.90;;;14.20;;
59442;SDS011;45247;47.466;19.004;2024-02-28T05:37:10;33.25;;;16.20;;
59442;SDS011;45247;47.466;19.004;2024-02-28T05:39:39;29.20;;;14.73;;
59442;SDS011;45247;47.466;19.004;2024-02-28T05:42:07;28.70;;;16.17;;
59442;SDS011;45247;47.466;19.004;2024-02-28T05:44:35;27.92;;;15.57;;
59442;SDS011;45247;47.466;19.004;2024-02-28T05:47:04;28.45;;;16.23;;
59442;SDS011;45247;47.466;19.004;2024-02-28T05:49:33;35.30;;;16.90;;
59442;SDS011;45247;47.466;19.004;2024-02-28T05:52:01;33.60;;;15.70;;
59442;SDS011;45247;47.466;19.004;2024-02-28T05:54:30;30.00;;;16.05;;
59442;SDS011;45247;47.466;19.004;2024-02-28T05:56:58;28.50;;;17.00;;
59442;SDS011;45247;47.466;19.004;2024-02-28T05:59:26;29.20;;;17.30;;
59442;SDS011;45247;47.466;19.004;2024-02-28T06:01:57;30.67;;;16.83;;
59442;SDS011;45247;47.466;19.004;2024-02-28T06:04:25;28.77;;;16.00;;
59442;SDS011;45247;47.466;19.004;2024-02-28T06:06:54;37.83;;;16.08;;
59442;SDS011;45247;47.466;19.004;2024-02-28T06:09:22;31.65;;;16.70;;
59442;SDS011;45247;47.466;19.004;2024-02-28T06:11:50;27.70;;;15.48;;
59442;SDS011;45247;47.466;19.004;2024-02-28T06:14:19;31.42;;;16.40;;
59442;SDS011;45247;47.466;19.004;2024-02-28T06:16:48;27.83;;;15.65;;
59442;SDS011;45247;47.466;19.004;2024-02-28T06:19:16;30.88;;;15.60;;
59442;SDS011;45247;47.466;19.004;2024-02-28T06:21:44;35.90;;;16.17;;
59442;SDS011;45247;47.466;19.004;2024-02-28T06:24:13;29.40;;;15.85;;
59442;SDS011;45247;47.466;19.004;2024-02-28T06:26:41;26.80;;;16.50;;
59442;SDS011;45247;47.466;19.004;2024-02-28T06:29:15;28.38;;;16.20;;
59442;SDS011;45247;47.466;19.004;2024-02-28T06:31:43;31.40;;;16.95;;
59442;SDS011;45247;47.466;19.004;2024-02-28T06:34:11;28.08;;;15.60;;
59442;SDS011;45247;47.466;19.004;2024-02-28T06:36:40;26.35;;;17.15;;
59442;SDS011;45247;47.466;19.004;2024-02-28T06:39:09;31.13;;;15.48;;
59442;SDS011;45247;47.466;19.004;2024-02-28T06:41:38;29.52;;;15.68;;
59442;SDS011;45247;47.466;19.004;2024-02-28T06:44:06;29.63;;;15.80;;
59442;SDS011;45247;47.466;19.004;2024-02-28T06:46:35;30.92;;;16.70;;
59442;SDS011;45247;47.466;19.004;2024-02-28T06:49:03;26.55;;;14.73;;
59442;SDS011;45247;47.466;19.004;2024-02-28T06:51:32;26.98;;;14.85;;
59442;SDS011;45247;47.466;19.004;2024-02-28T06:54:00;31.90;;;16.48;;
59442;SDS011;45247;47.466;19.004;2024-02-28T06:56:28;27.33;;;16.00;;
59442;SDS011;45247;47.466;19.004;2024-02-28T06:58:57;26.80;;;14.98;;
59442;SDS011;45247;47.466;19.004;2024-02-28T07:01:25;29.38;;;15.40;;
59442;SDS011;45247;47.466;19.004;2024-02-28T07:03:53;32.30;;;15.27;;
59442;SDS011;45247;47.466;19.004;2024-02-28T07:06:22;27.45;;;16.08;;
59442;SDS011;45247;47.466;19.004;2024-02-28T07:08:50;27.60;;;14.95;;
59442;SDS011;45247;47.466;19.004;2024-02-28T07:11:18;25.52;;;15.45;;
59442;SDS011;45247;47.466;19.004;2024-02-28T07:13:46;28.50;;;13.93;;
59442;SDS011;45247;47.466;19.004;2024-02-28T07:16:16;26.48;;;14.63;;
59442;SDS011;45247;47.466;19.004;2024-02-28T07:18:44;25.10;;;14.90;;
59442;SDS011;45247;47.466;19.004;2024-02-28T07:21:12;25.08;;;14.38;;
59442;SDS011;45247;47.466;19.004;2024-02-28T07:23:40;25.77;;;14.88;;
59442;SDS011;45247;47.466;19.004;2024-02-28T07:26:13;28.67;;;13.65;;
59442;SDS011;45247;47.466;19.004;2024-02-28T07:28:52;27.98;;;16.05;;
59442;SDS011;45247;47.466;19.004;2024-02-28T07:31:22;28.45;;;15.85;;
59442;SDS011;45247;47.466;19.004;2024-02-28T07:33:50;27.70;;;14.88;;
59442;SDS011;45247;47.466;19.004;2024-02-28T07:36:18;28.65;;;15.35;;
59442;SDS011;45247;47.466;19.004;2024-02-28T07:38:47;26.85;;;14.45;;
59442;SDS011;45247;47.466;19.004;2024-02-28T07:41:15;25.58;;;14.52;;
59442;SDS011;45247;47.466;19.004;2024-02-28T07:43:43;28.60;;;14.93;;
59442;SDS011;45247;47.466;19.004;2024-02-28T07:46:11;28.55;;;15.32;;
59442;SDS011;45247;47.466;19.004;2024-02-28T07:48:41;28.10;;;14.13;;
59442;SDS011;45247;47.466;19.004;2024-02-28T07:51:10;25.80;;;13.90;;
59442;SDS011;45247;47.466;19.004;2024-02-28T07:53:38;24.85;;;15.00;;
59442;SDS011;45247;47.466;19.004;2024-02-28T07:56:15;19.77;;;12.73;;
59442;SDS011;45247;47.466;19.004;2024-02-28T07:58:43;26.63;;;13.77;;
59442;SDS011;45247;47.466;19.004;2024-02-28T08:01:12;27.55;;;14.20;;
59442;SDS011;45247;47.466;19.004;2024-02-28T08:03:41;22.55;;;13.95;;
59442;SDS011;45247;47.466;19.004;2024-02-28T08:06:10;29.48;;;14.93;;
59442;SDS011;45247;47.466;19.004;2024-02-28T08:08:38;29.50;;;13.38;;
59442;SDS011;45247;47.466;19.004;2024-02-28T08:11:06;21.40;;;13.55;;
59442;SDS011;45247;47.466;19.004;2024-02-28T08:13:34;25.67;;;14.02;;
59442;SDS011;45247;47.466;19.004;2024-02-28T08:16:03;26.13;;;14.32;;
59442;SDS011;45247;47.466;19.004;2024-02-28T08:18:35;25.23;;;13.93;;
59442;SDS011;45247;47.466;19.004;2024-02-28T08:21:05;25.58;;;13.05;;
59442;SDS011;45247;47.466;19.004;2024-02-28T08:23:33;25.10;;;12.20;;
59442;SDS011;45247;47.466;19.004;2024-02-28T08:26:01;26.25;;;13.00;;
59442;SDS011;45247;47.466;19.004;2024-02-28T08:28:30;21.77;;;12.93;;
59442;SDS011;45247;47.466;19.004;2024-02-28T08:30:58;29.23;;;14.57;;
59442;SDS011;45247;47.466;19.004;2024-02-28T08:33:26;26.50;;;14.80;;
59442;SDS011;45247;47.466;19.004;2024-02-28T08:35:55;27.08;;;13.95;;
59442;SDS011;45247;47.466;19.004;2024-02-28T08:38:25;24.38;;;13.80;;
59442;SDS011;45247;47.466;19.004;2024-02-28T08:40:53;25.48;;;14.02;;
59442;SDS011;45247;47.466;19.004;2024-02-28T08:43:21;25.55;;;14.15;;
59442;SDS011;45247;47.466;19.004;2024-02-28T08:45:49;31.75;;;14.98;;
59442;SDS011;45247;47.466;19.004;2024-02-28T08:48:18;28.13;;;14.73;;
59442;SDS011;45247;47.466;19.004;2024-02-28T08:50:46;29.73;;;14.60;;
59442;SDS011;45247;47.466;19.004;2024-02-28T08:53:14;23.88;;;13.20;;
59442;SDS011;45247;47.466;19.004;2024-02-28T08:55:44;34.92;;;14.68;;
59442;SDS011;45247;47.466;19.004;2024-02-28T08:58:12;28.83;;;14.65;;
59442;SDS011;45247;47.466;19.004;2024-02-28T09:00:40;28.52;;;13.88;;
59442;SDS011;45247;47.466;19.004;2024-02-28T09:03:08;26.83;;;14.38;;
59442;SDS011;45247;47.466;19.004;2024-02-28T09:05:36;22.67;;;13.75;;
59442;SDS011;45247;47.466;19.004;2024-02-28T09:08:05;22.65;;;13.40;;
59442;SDS011;45247;47.466;19.004;2024-02-28T09:10:37;24.10;;;13.65;;
59442;SDS011;45247;47.466;19.004;2024-02-28T09:13:06;24.25;;;12.93;;
59442;SDS011;45247;47.466;19.004;2024-02-28T09:15:36;26.20;;;13.38;;
59442;SDS011;45247;47.466;19.004;2024-02-28T09:18:05;31.35;;;14.27;;
59442;SDS011;45247;47.466;19.004;2024-02-28T09:20:33;29.88;;;13.98;;
59442;SDS011;45247;47.466;19.004;2024-02-28T09:23:01;32.72;;;14.52;;
59442;SDS011;45247;47.466;19.004;2024-02-28T09:25:30;25.90;;;13.75;;
59442;SDS011;45247;47.466;19.004;2024-02-28T09:27:59;26.92;;;14.43;;
59442;SDS011;45247;47.466;19.004;2024-02-28T09:30:29;30.27;;;14.32;;
59442;SDS011;45247;47.466;19.004;2024-02-28T09:33:11;27.63;;;14.77;;
59442;SDS011;45247;47.466;19.004;2024-02-28T09:35:40;27.48;;;14.23;;
59442;SDS011;45247;47.466;19.004;2024-02-28T09:38:08;22.10;;;13.23;;
59442;SDS011;45247;47.466;19.004;2024-02-28T09:40:36;23.52;;;13.77;;
59442;SDS011;45247;47.466;19.004;2024-02-28T09:43:05;24.75;;;14.30;;
59442;SDS011;45247;47.466;19.004;2024-02-28T09:45:39;26.83;;;15.07;;
59442;SDS011;45247;47.466;19.004;2024-02-28T09:48:10;25.98;;;14.65;;
59442;SDS011;45247;47.466;19.004;2024-02-28T09:50:40;26.40;;;13.15;;
59442;SDS011;45247;47.466;19.004;2024-02-28T09:53:10;21.92;;;13.63;;
59442;SDS011;45247;47.466;19.004;2024-02-28T09:55:38;30.27;;;13.85;;
59442;SDS011;45247;47.466;19.004;2024-02-28T09:58:06;28.55;;;15.18;;
59442;SDS011;45247;47.466;19.004;2024-02-28T10:00:36;28.20;;;14.40;;
59442;SDS011;45247;47.466;19.004;2024-02-28T10:03:09;23.52;;;14.13;;
59442;SDS011;45247;47.466;19.004;2024-02-28T10:05:39;22.45;;;13.90;;
59442;SDS011;45247;47.466;19.004;2024-02-28T10:08:10;24.15;;;13.90;;
59442;SDS011;45247;47.466;19.004;2024-02-28T10:10:44;29.80;;;14.35;;
59442;SDS011;45247;47.466;19.004;2024-02-28T10:13:13;32.08;;;15.02;;
59442;SDS011;45247;47.466;19.004;2024-02-28T10:15:41;33.38;;;14.77;;
59442;SDS011;45247;47.466;19.004;2024-02-28T10:18:11;30.05;;;13.85;;
59442;SDS011;45247;47.466;19.004;2024-02-28T10:20:39;26.55;;;13.88;;
59442;SDS011;45247;47.466;19.004;2024-02-28T10:23:07;26.17;;;12.98;;
59442;SDS011;45247;47.466;19.004;2024-02-28T10:25:41;25.02;;;13.15;;
59442;SDS011;45247;47.466;19.004;2024-02-28T10:28:22;32.95;;;15.55;;
59442;SDS011;45247;47.466;19.004;2024-02-28T10:30:51;28.80;;;14.25;;
59442;SDS011;45247;47.466;19.004;2024-02-28T10:33:25;27.55;;;13.27;;
59442;SDS011;45247;47.466;19.004;2024-02-28T10:35:55;26.92;;;12.75;;
59442;SDS011;45247;47.466;19.004;2024-02-28T10:38:24;27.40;;;13.55;;
59442;SDS011;45247;47.466;19.004;2024-02-28T10:40:54;27.42;;;13.25;;
59442;SDS011;45247;47.466;19.004;2024-02-28T10:43:24;21.55;;;12.60;;
59442;SDS011;45247;47.466;19.004;2024-02-28T10:45:56;30.10;;;13.70;;
59442;SDS011;45247;47.466;19.004;2024-02-28T10:48:49;26.88;;;12.55;;
59442;SDS011;45247;47.466;19.004;2024-02-28T10:51:20;27.15;;;14.30;;
59442;SDS011;45247;47.466;19.004;2024-02-28T10:53:54;31.45;;;14.15;;
59442;SDS011;45247;47.466;19.004;2024-02-28T10:56:31;25.45;;;12.43;;
59442;SDS011;45247;47.466;19.004;2024-02-28T10:58:59;25.60;;;13.30;;
59442;SDS011;45247;47.466;19.004;2024-02-28T11:01:29;37.03;;;14.30;;
59442;SDS011;45247;47.466;19.004;2024-02-28T11:03:58;35.30;;;20.85;;
59442;SDS011;45247;47.466;19.004;2024-02-28T11:06:27;24.05;;;12.70;;
59442;SDS011;45247;47.466;19.004;2024-02-28T11:08:55;27.48;;;13.05;;
59442;SDS011;45247;47.466;19.004;2024-02-28T11:11:23;22.13;;;11.50;;
59442;SDS011;45247;47.466;19.004;2024-02-28T11:13:52;25.17;;;13.65;;
59442;SDS011;45247;47.466;19.004;2024-02-28T11:16:28;23.15;;;13.15;;
59442;SDS011;45247;47.466;19.004;2024-02-28T11:18:59;25.38;;;13.48;;
59442;SDS011;45247;47.466;19.004;2024-02-28T11:21:33;23.63;;;12.48;;
59442;SDS011;45247;47.466;19.004;2024-02-28T11:24:02;25.00;;;12.48;;
59442;SDS011;45247;47.466;19.004;2024-02-28T11:26:32;25.38;;;12.50;;
59442;SDS011;45247;47.466;19.004;2024-02-28T11:29:01;24.13;;;12.80;;
59442;SDS011;45247;47.466;19.004;2024-02-28T11:31:29;29.27;;;12.73;;
59442;SDS011;45247;47.466;19.004;2024-02-28T11:33:59;27.02;;;12.65;;
59442;SDS011;45247;47.466;19.004;2024-02-28T11:36:27;26.35;;;12.85;;
59442;SDS011;45247;47.466;19.004;2024-02-28T11:38:55;25.02;;;13.20;;
59442;SDS011;45247;47.466;19.004;2024-02-28T11:41:25;24.42;;;12.77;;
59442;SDS011;45247;47.466;19.004;2024-02-28T11:43:54;23.45;;;12.38;;
59442;SDS011;45247;47.466;19.004;2024-02-28T11:46:23;26.38;;;13.30;;
59442;SDS011;45247;47.466;19.004;2024-02-28T11:48:52;31.13;;;14.05;;
59442;SDS011;45247;47.466;19.004;2024-02-28T11:51:21;26.08;;;12.60;;
59442;SDS011;45247;47.466;19.004;2024-02-28T11:53:49;22.70;;;12.40;;
59442;SDS011;45247;47.466;19.004;2024-02-28T11:56:18;23.55;;;11.88;;
59442;SDS011;45247;47.466;19.004;2024-02-28T11:58:51;24.48;;;12.02;;
59442;SDS011;45247;47.466;19.004;2024-02-28T12:01:19;21.30;;;11.70;;
59442;SDS011;45247;47.466;19.004;2024-02-28T12:03:47;24.88;;;12.13;;
59442;SDS011;45247;47.466;19.004;2024-02-28T12:06:15;27.55;;;12.05;;
59442;SDS011;45247;47.466;19.004;2024-02-28T12:08:46;20.08;;;11.63;;
59442;SDS011;45247;47.466;19.004;2024-02-28T12:11:14;23.60;;;12.15;;
59442;SDS011;45247;47.466;19.004;2024-02-28T12:13:42;25.70;;;12.40;;
59442;SDS011;45247;47.466;19.004;2024-02-28T12:16:13;20.55;;;12.15;;
59442;SDS011;45247;47.466;19.004;2024-02-28T12:18:41;22.90;;;11.60;;
59442;SDS011;45247;47.466;19.004;2024-02-28T12:21:09;25.90;;;12.68;;
59442;SDS011;45247;47.466;19.004;2024-02-28T12:23:37;21.88;;;12.55;;
59442;SDS011;45247;47.466;19.004;2024-02-28T12:26:07;25.73;;;12.70;;
59442;SDS011;45247;47.466;19.004;2024-02-28T12:28:35;25.48;;;11.95;;
59442;SDS011;45247;47.466;19.004;2024-02-28T12:31:03;18.02;;;11.52;;
59442;SDS011;45247;47.466;19.004;2024-02-28T12:33:34;19.65;;;12.05;;
59442;SDS011;45247;47.466;19.004;2024-02-28T12:36:03;22.30;;;11.32;;
59442;SDS011;45247;47.466;19.004;2024-02-28T12:38:31;25.45;;;12.95;;
59442;SDS011;45247;47.466;19.004;2024-02-28T12:40:59;17.98;;;11.63;;
59442;SDS011;45247;47.466;19.004;2024-02-28T12:43:29;27.67;;;12.60;;
59442;SDS011;45247;47.466;19.004;2024-02-28T12:45:58;23.08;;;11.75;;
59442;SDS011;45247;47.466;19.004;2024-02-28T12:48:26;26.35;;;11.95;;
59442;SDS011;45247;47.466;19.004;2024-02-28T12:50:56;25.98;;;11.80;;
59442;SDS011;45247;47.466;19.004;2024-02-28T12:53:24;24.13;;;11.43;;
59442;SDS011;45247;47.466;19.004;2024-02-28T12:55:52;24.77;;;12.35;;
59442;SDS011;45247;47.466;19.004;2024-02-28T12:58:20;28.45;;;11.82;;
59442;SDS011;45247;47.466;19.004;2024-02-28T13:00:51;19.20;;;11.40;;
59442;SDS011;45247;47.466;19.004;2024-02-28T13:03:19;25.70;;;11.10;;
59442;SDS011;45247;47.466;19.004;2024-02-28T13:05:48;30.58;;;12.18;;
59442;SDS011;45247;47.466;19.004;2024-02-28T13:08:16;25.95;;;11.95;;
59442;SDS011;45247;47.466;19.004;2024-02-28T13:10:44;20.67;;;11.88;;
59442;SDS011;45247;47.466;19.004;2024-02-28T13:13:12;26.50;;;11.85;;
59442;SDS011;45247;47.466;19.004;2024-02-28T13:15:40;19.15;;;11.27;;
59442;SDS011;45247;47.466;19.004;2024-02-28T13:18:10;28.08;;;12.00;;
59442;SDS011;45247;47.466;19.004;2024-02-28T13:20:38;27.88;;;11.68;;
59442;SDS011;45247;47.466;19.004;2024-02-28T13:23:07;23.77;;;12.20;;
59442;SDS011;45247;47.466;19.004;2024-02-28T13:25:35;19.92;;;10.90;;
59442;SDS011;45247;47.466;19.004;2024-02-28T13:28:04;21.10;;;11.30;;
59442;SDS011;45247;47.466;19.004;2024-02-28T13:30:32;20.77;;;11.25;;
59442;SDS011;45247;47.466;19.004;2024-02-28T13:33:03;22.65;;;11.32;;
59442;SDS011;45247;47.466;19.004;2024-02-28T13:35:33;20.75;;;11.43;;
59442;SDS011;45247;47.466;19.004;2024-02-28T13:38:01;23.10;;;11.40;;
59442;SDS011;45247;47.466;19.004;2024-02-28T13:40:29;24.23;;;11.00;;
59442;SDS011;45247;47.466;19.004;2024-02-28T13:42:57;24.95;;;11.45;;
59442;SDS011;45247;47.466;19.004;2024-02-28T13:45:25;24.65;;;10.95;;
59442;SDS011;45247;47.466;19.004;2024-02-28T13:47:53;20.30;;;9.95;;
59442;SDS011;45247;47.466;19.004;2024-02-28T13:50:21;25.05;;;11.07;;
59442;SDS011;45247;47.466;19.004;2024-02-28T13:52:57;19.58;;;10.23;;
59442;SDS011;45247;47.466;19.004;2024-02-28T13:55:25;22.10;;;11.20;;
59442;SDS011;45247;47.466;19.004;2024-02-28T13:57:53;24.75;;;11.50;;
59442;SDS011;45247;47.466;19.004;2024-02-28T14:00:21;20.88;;;10.30;;
59442;SDS011;45247;47.466;19.004;2024-02-28T14:02:50;26.05;;;9.57;;
59442;SDS011;45247;47.466;19.004;2024-02-28T14:05:18;24.35;;;9.90;;
59442;SDS011;45247;47.466;19.004;2024-02-28T14:07:46;23.52;;;8.65;;
59442;SDS011;45247;47.466;19.004;2024-02-28T14:10:16;17.83;;;8.52;;
59442;SDS011;45247;47.466;19.004;2024-02-28T14:12:44;19.98;;;9.35;;
59442;SDS011;45247;47.466;19.004;2024-02-28T14:15:12;22.65;;;9.65;;
59442;SDS011;45247;47.466;19.004;2024-02-28T14:17:40;16.58;;;8.40;;
59442;SDS011;45247;47.466;19.004;2024-02-28T14:20:09;18.23;;;8.98;;